sensor_id;sensor_type;location;lat;lon;timestamp;P1;durP1;ratioP1;P2;durP2;ratioP2
3447;SDS011;1738;49.500;17.736;2022-08-19T00:01:13;24.90;;;18.80;;
3447;SDS011;1738;49.500;17.736;2022-08-19T00:03:39;24.73;;;17.03;;
3447;SDS011;1738;49.500;17.736;2022-08-19T00:06:05;21.20;;;16.80;;
3447;SDS011;1738;49.500;17.736;2022-08-19T00:08:31;20.37;;;17.37;;
3447;SDS011;1738;49.500;17.736;2022-08-19T00:10:56;20.40;;;17.97;;
3447;SDS011;1738;49.500;17.736;2022-08-19T00:13:22;20.20;;;18.10;;
3447;SDS011;1738;49.500;17.736;2022-08-19T00:15:48;20.90;;;17.27;;
3447;SDS011;1738;49.500;17.736;2022-08-19T00:18:14;21.90;;;17.43;;
3447;SDS011;1738;49.500;17.736;2022-08-19T00:20:40;17.43;;;15.63;;
3447;SDS011;1738;49.500;17.736;2022-08-19T00:23:06;17.50;;;15.70;;
3447;SDS011;1738;49.500;17.736;2022-08-19T00:25:32;17.73;;;15.93;;
3447;SDS011;1738;49.500;17.736;2022-08-19T00:27:57;18.77;;;16.73;;
3447;SDS011;1738;49.500;17.736;2022-08-19T00:30:23;19.87;;;17.77;;
3447;SDS011;1738;49.500;17.736;2022-08-19T00:32:49;19.70;;;16.93;;
3447;SDS011;1738;49.500;17.736;2022-08-19T00:35:15;22.30;;;16.73;;
3447;SDS011;1738;49.500;17.736;2022-08-19T00:37:41;19.30;;;16.17;;
3447;SDS011;1738;49.500;17.736;2022-08-19T00:40:07;19.07;;;16.93;;
3447;SDS011;1738;49.500;17.736;2022-08-19T00:42:33;16.80;;;14.90;;
3447;SDS011;1738;49.500;17.736;2022-08-19T00:44:58;18.67;;;16.70;;
3447;SDS011;1738;49.500;17.736;2022-08-19T00:47:24;18.30;;;15.57;;
3447;SDS011;1738;49.500;17.736;2022-08-19T00:49:52;21.83;;;16.83;;
3447;SDS011;1738;49.500;17.736;2022-08-19T00:52:18;22.30;;;17.47;;
3447;SDS011;1738;49.500;17.736;2022-08-19T00:54:42;18.90;;;16.90;;
3447;SDS011;1738;49.500;17.736;2022-08-19T00:57:09;19.57;;;16.80;;
3447;SDS011;1738;49.500;17.736;2022-08-19T00:59:35;19.90;;;16.10;;
3447;SDS011;1738;49.500;17.736;2022-08-19T01:01:59;24.00;;;18.87;;
3447;SDS011;1738;49.500;17.736;2022-08-19T01:04:25;25.30;;;17.93;;
3447;SDS011;1738;49.500;17.736;2022-08-19T01:06:51;28.53;;;19.03;;
3447;SDS011;1738;49.500;17.736;2022-08-19T01:09:17;20.67;;;17.10;;
3447;SDS011;1738;49.500;17.736;2022-08-19T01:11:43;20.33;;;17.70;;
3447;SDS011;1738;49.500;17.736;2022-08-19T01:14:09;19.77;;;17.00;;
3447;SDS011;1738;49.500;17.736;2022-08-19T01:16:35;18.43;;;16.07;;
3447;SDS011;1738;49.500;17.736;2022-08-19T01:19:00;19.23;;;17.13;;
3447;SDS011;1738;49.500;17.736;2022-08-19T01:21:30;25.97;;;16.73;;
3447;SDS011;1738;49.500;17.736;2022-08-19T01:23:53;24.57;;;17.17;;
3447;SDS011;1738;49.500;17.736;2022-08-19T01:26:20;17.07;;;15.30;;
3447;SDS011;1738;49.500;17.736;2022-08-19T01:28:46;19.03;;;15.30;;
3447;SDS011;1738;49.500;17.736;2022-08-19T01:31:14;20.83;;;16.23;;
3447;SDS011;1738;49.500;17.736;2022-08-19T01:33:38;16.47;;;14.77;;
3447;SDS011;1738;49.500;17.736;2022-08-19T01:36:05;22.43;;;15.70;;
3447;SDS011;1738;49.500;17.736;2022-08-19T01:38:30;15.87;;;13.60;;
3447;SDS011;1738;49.500;17.736;2022-08-19T01:40:56;19.87;;;12.37;;
3447;SDS011;1738;49.500;17.736;2022-08-19T01:43:22;12.27;;;9.97;;
3447;SDS011;1738;49.500;17.736;2022-08-19T01:45:48;12.00;;;9.27;;
3447;SDS011;1738;49.500;17.736;2022-08-19T01:48:13;16.53;;;9.40;;
3447;SDS011;1738;49.500;17.736;2022-08-19T01:50:39;15.17;;;9.87;;
3447;SDS011;1738;49.500;17.736;2022-08-19T01:53:07;13.53;;;8.47;;
3447;SDS011;1738;49.500;17.736;2022-08-19T01:55:31;15.30;;;8.57;;
3447;SDS011;1738;49.500;17.736;2022-08-19T01:57:58;12.53;;;8.40;;
3447;SDS011;1738;49.500;17.736;2022-08-19T02:00:24;12.63;;;10.20;;
3447;SDS011;1738;49.500;17.736;2022-08-19T02:02:49;10.83;;;8.10;;
3447;SDS011;1738;49.500;17.736;2022-08-19T02:05:14;10.73;;;8.37;;
3447;SDS011;1738;49.500;17.736;2022-08-19T02:07:40;10.77;;;7.53;;
3447;SDS011;1738;49.500;17.736;2022-08-19T02:10:07;16.87;;;8.13;;
3447;SDS011;1738;49.500;17.736;2022-08-19T02:12:32;13.57;;;8.23;;
3447;SDS011;1738;49.500;17.736;2022-08-19T02:14:58;10.33;;;8.40;;
3447;SDS011;1738;49.500;17.736;2022-08-19T02:17:24;9.77;;;7.60;;
3447;SDS011;1738;49.500;17.736;2022-08-19T02:19:50;12.93;;;8.33;;
3447;SDS011;1738;49.500;17.736;2022-08-19T02:22:16;13.20;;;8.10;;
3447;SDS011;1738;49.500;17.736;2022-08-19T02:24:42;17.70;;;7.60;;
3447;SDS011;1738;49.500;17.736;2022-08-19T02:27:07;11.23;;;8.03;;
3447;SDS011;1738;49.500;17.736;2022-08-19T02:29:33;11.83;;;7.73;;
3447;SDS011;1738;49.500;17.736;2022-08-19T02:31:59;11.97;;;8.53;;
3447;SDS011;1738;49.500;17.736;2022-08-19T02:34:25;9.10;;;7.97;;
3447;SDS011;1738;49.500;17.736;2022-08-19T02:36:51;15.27;;;7.40;;
3447;SDS011;1738;49.500;17.736;2022-08-19T02:39:17;10.30;;;8.23;;
3447;SDS011;1738;49.500;17.736;2022-08-19T02:41:42;13.47;;;8.63;;
3447;SDS011;1738;49.500;17.736;2022-08-19T02:44:08;12.57;;;7.73;;
3447;SDS011;1738;49.500;17.736;2022-08-19T02:46:34;11.97;;;8.13;;
3447;SDS011;1738;49.500;17.736;2022-08-19T02:49:01;20.40;;;8.57;;
3447;SDS011;1738;49.500;17.736;2022-08-19T02:51:28;11.67;;;8.27;;
3447;SDS011;1738;49.500;17.736;2022-08-19T02:53:52;19.00;;;9.53;;
3447;SDS011;1738;49.500;17.736;2022-08-19T02:56:18;17.47;;;9.30;;
3447;SDS011;1738;49.500;17.736;2022-08-19T02:58:43;12.83;;;9.27;;
3447;SDS011;1738;49.500;17.736;2022-08-19T03:01:10;14.30;;;10.93;;
3447;SDS011;1738;49.500;17.736;2022-08-19T03:03:35;12.30;;;9.50;;
3447;SDS011;1738;49.500;17.736;2022-08-19T03:06:10;11.57;;;9.60;;
3447;SDS011;1738;49.500;17.736;2022-08-19T03:08:36;12.27;;;8.10;;
3447;SDS011;1738;49.500;17.736;2022-08-19T03:11:02;13.97;;;8.90;;
3447;SDS011;1738;49.500;17.736;2022-08-19T03:13:28;11.33;;;8.50;;
3447;SDS011;1738;49.500;17.736;2022-08-19T03:15:54;12.83;;;9.50;;
3447;SDS011;1738;49.500;17.736;2022-08-19T03:18:20;17.57;;;10.70;;
3447;SDS011;1738;49.500;17.736;2022-08-19T03:20:47;13.53;;;10.07;;
3447;SDS011;1738;49.500;17.736;2022-08-19T03:23:11;15.23;;;9.80;;
3447;SDS011;1738;49.500;17.736;2022-08-19T03:25:39;17.50;;;9.00;;
3447;SDS011;1738;49.500;17.736;2022-08-19T03:28:04;16.17;;;10.07;;
3447;SDS011;1738;49.500;17.736;2022-08-19T03:30:30;18.53;;;9.30;;
3447;SDS011;1738;49.500;17.736;2022-08-19T03:32:55;13.50;;;8.80;;
3447;SDS011;1738;49.500;17.736;2022-08-19T03:35:21;12.30;;;9.00;;
3447;SDS011;1738;49.500;17.736;2022-08-19T03:37:47;13.70;;;10.00;;
3447;SDS011;1738;49.500;17.736;2022-08-19T03:40:13;10.53;;;8.83;;
3447;SDS011;1738;49.500;17.736;2022-08-19T03:42:39;14.33;;;10.63;;
3447;SDS011;1738;49.500;17.736;2022-08-19T03:45:05;15.73;;;8.83;;
3447;SDS011;1738;49.500;17.736;2022-08-19T03:47:31;11.17;;;8.90;;
3447;SDS011;1738;49.500;17.736;2022-08-19T03:49:57;11.87;;;9.23;;
3447;SDS011;1738;49.500;17.736;2022-08-19T03:52:23;16.60;;;10.40;;
3447;SDS011;1738;49.500;17.736;2022-08-19T03:54:49;12.13;;;10.03;;
3447;SDS011;1738;49.500;17.736;2022-08-19T03:57:15;11.40;;;9.75;;
3447;SDS011;1738;49.500;17.736;2022-08-19T03:59:41;10.30;;;9.13;;
3447;SDS011;1738;49.500;17.736;2022-08-19T04:02:08;19.20;;;10.70;;
3447;SDS011;1738;49.500;17.736;2022-08-19T04:04:32;13.80;;;9.80;;
3447;SDS011;1738;49.500;17.736;2022-08-19T04:06:58;12.20;;;10.00;;
3447;SDS011;1738;49.500;17.736;2022-08-19T04:09:24;17.43;;;10.33;;
3447;SDS011;1738;49.500;17.736;2022-08-19T04:11:51;12.10;;;9.80;;
3447;SDS011;1738;49.500;17.736;2022-08-19T04:14:17;15.03;;;10.43;;
3447;SDS011;1738;49.500;17.736;2022-08-19T04:16:42;14.27;;;9.10;;
3447;SDS011;1738;49.500;17.736;2022-08-19T04:19:07;15.80;;;10.30;;
3447;SDS011;1738;49.500;17.736;2022-08-19T04:21:33;23.50;;;10.40;;
3447;SDS011;1738;49.500;17.736;2022-08-19T04:23:59;17.03;;;11.90;;
3447;SDS011;1738;49.500;17.736;2022-08-19T04:26:26;25.23;;;10.30;;
3447;SDS011;1738;49.500;17.736;2022-08-19T04:28:51;21.40;;;11.60;;
3447;SDS011;1738;49.500;17.736;2022-08-19T04:31:19;21.60;;;12.57;;
3447;SDS011;1738;49.500;17.736;2022-08-19T04:33:43;18.00;;;11.47;;
3447;SDS011;1738;49.500;17.736;2022-08-19T04:36:15;14.73;;;10.10;;
3447;SDS011;1738;49.500;17.736;2022-08-19T04:38:34;14.07;;;11.40;;
3447;SDS011;1738;49.500;17.736;2022-08-19T04:41:01;31.47;;;14.73;;
3447;SDS011;1738;49.500;17.736;2022-08-19T04:43:33;14.93;;;10.73;;
3447;SDS011;1738;49.500;17.736;2022-08-19T04:45:58;15.40;;;11.60;;
3447;SDS011;1738;49.500;17.736;2022-08-19T04:48:24;14.03;;;8.87;;
3447;SDS011;1738;49.500;17.736;2022-08-19T04:50:52;17.47;;;10.07;;
3447;SDS011;1738;49.500;17.736;2022-08-19T04:53:17;19.33;;;10.37;;
3447;SDS011;1738;49.500;17.736;2022-08-19T04:55:43;14.43;;;9.60;;
3447;SDS011;1738;49.500;17.736;2022-08-19T04:58:09;41.97;;;30.80;;
3447;SDS011;1738;49.500;17.736;2022-08-19T05:00:37;24.90;;;17.80;;
3447;SDS011;1738;49.500;17.736;2022-08-19T05:03:00;22.53;;;18.40;;
3447;SDS011;1738;49.500;17.736;2022-08-19T05:05:26;22.20;;;14.17;;
3447;SDS011;1738;49.500;17.736;2022-08-19T05:07:52;17.07;;;12.80;;
3447;SDS011;1738;49.500;17.736;2022-08-19T05:10:18;35.30;;;12.90;;
3447;SDS011;1738;49.500;17.736;2022-08-19T05:12:44;21.43;;;10.43;;
3447;SDS011;1738;49.500;17.736;2022-08-19T05:15:10;14.27;;;10.97;;
3447;SDS011;1738;49.500;17.736;2022-08-19T05:17:35;15.07;;;11.13;;
3447;SDS011;1738;49.500;17.736;2022-08-19T05:20:02;22.00;;;12.53;;
3447;SDS011;1738;49.500;17.736;2022-08-19T05:22:33;15.13;;;10.27;;
3447;SDS011;1738;49.500;17.736;2022-08-19T05:25:02;23.00;;;9.83;;
3447;SDS011;1738;49.500;17.736;2022-08-19T05:27:26;14.47;;;11.57;;
3447;SDS011;1738;49.500;17.736;2022-08-19T05:29:52;19.07;;;10.90;;
3447;SDS011;1738;49.500;17.736;2022-08-19T05:32:18;15.07;;;10.80;;
3447;SDS011;1738;49.500;17.736;2022-08-19T05:34:44;13.20;;;11.27;;
3447;SDS011;1738;49.500;17.736;2022-08-19T05:37:10;15.03;;;10.53;;
3447;SDS011;1738;49.500;17.736;2022-08-19T05:39:36;16.73;;;11.40;;
3447;SDS011;1738;49.500;17.736;2022-08-19T05:42:03;13.50;;;11.40;;
3447;SDS011;1738;49.500;17.736;2022-08-19T05:44:29;19.70;;;12.30;;
3447;SDS011;1738;49.500;17.736;2022-08-19T05:46:53;31.03;;;11.00;;
3447;SDS011;1738;49.500;17.736;2022-08-19T05:49:20;18.90;;;10.40;;
3447;SDS011;1738;49.500;17.736;2022-08-19T05:51:45;14.13;;;11.67;;
3447;SDS011;1738;49.500;17.736;2022-08-19T05:54:11;26.17;;;10.70;;
3447;SDS011;1738;49.500;17.736;2022-08-19T05:56:37;22.97;;;10.60;;
3447;SDS011;1738;49.500;17.736;2022-08-19T05:59:03;12.60;;;9.93;;
3447;SDS011;1738;49.500;17.736;2022-08-19T06:01:28;22.20;;;11.03;;
3447;SDS011;1738;49.500;17.736;2022-08-19T06:03:54;20.77;;;10.63;;
3447;SDS011;1738;49.500;17.736;2022-08-19T06:06:20;18.87;;;10.50;;
3447;SDS011;1738;49.500;17.736;2022-08-19T06:08:46;15.37;;;11.63;;
3447;SDS011;1738;49.500;17.736;2022-08-19T06:11:19;20.57;;;9.80;;
3447;SDS011;1738;49.500;17.736;2022-08-19T06:13:43;12.80;;;10.87;;
3447;SDS011;1738;49.500;17.736;2022-08-19T06:16:09;16.43;;;12.50;;
3447;SDS011;1738;49.500;17.736;2022-08-19T06:18:35;13.77;;;10.80;;
3447;SDS011;1738;49.500;17.736;2022-08-19T06:21:00;15.93;;;11.33;;
3447;SDS011;1738;49.500;17.736;2022-08-19T06:23:26;12.47;;;10.80;;
3447;SDS011;1738;49.500;17.736;2022-08-19T06:25:52;13.33;;;10.67;;
3447;SDS011;1738;49.500;17.736;2022-08-19T06:28:18;14.33;;;11.20;;
3447;SDS011;1738;49.500;17.736;2022-08-19T06:30:44;13.93;;;10.87;;
3447;SDS011;1738;49.500;17.736;2022-08-19T06:33:10;14.80;;;11.40;;
3447;SDS011;1738;49.500;17.736;2022-08-19T06:35:39;14.60;;;10.50;;
3447;SDS011;1738;49.500;17.736;2022-08-19T06:38:04;20.60;;;11.83;;
3447;SDS011;1738;49.500;17.736;2022-08-19T06:40:30;15.77;;;11.43;;
3447;SDS011;1738;49.500;17.736;2022-08-19T06:42:56;14.53;;;10.97;;
3447;SDS011;1738;49.500;17.736;2022-08-19T06:45:22;14.97;;;9.90;;
3447;SDS011;1738;49.500;17.736;2022-08-19T06:47:48;14.70;;;11.37;;
3447;SDS011;1738;49.500;17.736;2022-08-19T06:50:14;12.00;;;9.13;;
3447;SDS011;1738;49.500;17.736;2022-08-19T06:52:39;14.77;;;10.43;;
3447;SDS011;1738;49.500;17.736;2022-08-19T06:55:05;12.23;;;10.07;;
3447;SDS011;1738;49.500;17.736;2022-08-19T06:57:31;14.53;;;9.40;;
3447;SDS011;1738;49.500;17.736;2022-08-19T06:59:57;15.10;;;11.57;;
3447;SDS011;1738;49.500;17.736;2022-08-19T07:02:23;13.00;;;10.27;;
3447;SDS011;1738;49.500;17.736;2022-08-19T07:04:49;11.90;;;10.17;;
3447;SDS011;1738;49.500;17.736;2022-08-19T07:07:15;17.50;;;10.30;;
3447;SDS011;1738;49.500;17.736;2022-08-19T07:09:42;12.57;;;10.50;;
3447;SDS011;1738;49.500;17.736;2022-08-19T07:12:07;11.50;;;9.90;;
3447;SDS011;1738;49.500;17.736;2022-08-19T07:14:33;14.30;;;10.10;;
3447;SDS011;1738;49.500;17.736;2022-08-19T07:16:58;15.23;;;10.37;;
3447;SDS011;1738;49.500;17.736;2022-08-19T07:19:25;10.60;;;9.50;;
3447;SDS011;1738;49.500;17.736;2022-08-19T07:21:50;10.60;;;9.50;;
3447;SDS011;1738;49.500;17.736;2022-08-19T07:24:16;12.10;;;9.57;;
3447;SDS011;1738;49.500;17.736;2022-08-19T07:26:42;13.17;;;10.33;;
3447;SDS011;1738;49.500;17.736;2022-08-19T07:29:08;14.00;;;9.03;;
3447;SDS011;1738;49.500;17.736;2022-08-19T07:31:33;14.67;;;9.97;;
3447;SDS011;1738;49.500;17.736;2022-08-19T07:34:00;16.00;;;9.80;;
3447;SDS011;1738;49.500;17.736;2022-08-19T07:36:27;11.90;;;9.03;;
3447;SDS011;1738;49.500;17.736;2022-08-19T07:38:52;15.43;;;9.10;;
3447;SDS011;1738;49.500;17.736;2022-08-19T07:41:19;17.77;;;9.10;;
3447;SDS011;1738;49.500;17.736;2022-08-19T07:43:44;16.00;;;10.37;;
3447;SDS011;1738;49.500;17.736;2022-08-19T07:46:10;15.82;;;10.40;;
3447;SDS011;1738;49.500;17.736;2022-08-19T07:48:36;23.13;;;10.30;;
3447;SDS011;1738;49.500;17.736;2022-08-19T07:51:03;14.17;;;9.50;;
3447;SDS011;1738;49.500;17.736;2022-08-19T07:53:28;12.57;;;10.50;;
3447;SDS011;1738;49.500;17.736;2022-08-19T07:55:53;14.67;;;10.70;;
3447;SDS011;1738;49.500;17.736;2022-08-19T07:58:20;14.77;;;10.67;;
3447;SDS011;1738;49.500;17.736;2022-08-19T08:00:46;17.10;;;11.07;;
3447;SDS011;1738;49.500;17.736;2022-08-19T08:03:11;10.03;;;8.93;;
3447;SDS011;1738;49.500;17.736;2022-08-19T08:05:37;15.90;;;9.93;;
3447;SDS011;1738;49.500;17.736;2022-08-19T08:08:08;10.40;;;9.30;;
3447;SDS011;1738;49.500;17.736;2022-08-19T08:10:40;12.80;;;10.17;;
3447;SDS011;1738;49.500;17.736;2022-08-19T08:13:06;11.30;;;10.20;;
3447;SDS011;1738;49.500;17.736;2022-08-19T08:15:32;14.67;;;9.30;;
3447;SDS011;1738;49.500;17.736;2022-08-19T08:17:57;15.07;;;11.13;;
3447;SDS011;1738;49.500;17.736;2022-08-19T08:20:23;12.43;;;9.50;;
3447;SDS011;1738;49.500;17.736;2022-08-19T08:22:49;12.50;;;9.30;;
3447;SDS011;1738;49.500;17.736;2022-08-19T08:25:21;14.63;;;9.63;;
3447;SDS011;1738;49.500;17.736;2022-08-19T08:27:46;18.10;;;10.47;;
3447;SDS011;1738;49.500;17.736;2022-08-19T08:30:16;16.03;;;9.30;;
3447;SDS011;1738;49.500;17.736;2022-08-19T08:32:39;12.60;;;9.17;;
3447;SDS011;1738;49.500;17.736;2022-08-19T08:35:06;11.67;;;9.13;;
3447;SDS011;1738;49.500;17.736;2022-08-19T08:37:31;13.93;;;10.60;;
3447;SDS011;1738;49.500;17.736;2022-08-19T08:39:57;14.10;;;10.03;;
3447;SDS011;1738;49.500;17.736;2022-08-19T08:42:27;12.10;;;9.57;;
3447;SDS011;1738;49.500;17.736;2022-08-19T08:44:53;11.17;;;8.97;;
3447;SDS011;1738;49.500;17.736;2022-08-19T08:47:19;20.43;;;9.80;;
3447;SDS011;1738;49.500;17.736;2022-08-19T08:49:45;14.33;;;10.20;;
3447;SDS011;1738;49.500;17.736;2022-08-19T08:52:13;13.50;;;9.40;;
3447;SDS011;1738;49.500;17.736;2022-08-19T08:54:38;15.03;;;9.17;;
3447;SDS011;1738;49.500;17.736;2022-08-19T08:57:04;13.47;;;9.43;;
3447;SDS011;1738;49.500;17.736;2022-08-19T08:59:30;14.63;;;10.27;;
3447;SDS011;1738;49.500;17.736;2022-08-19T09:01:56;12.47;;;10.13;;
3447;SDS011;1738;49.500;17.736;2022-08-19T09:04:22;19.47;;;10.60;;
3447;SDS011;1738;49.500;17.736;2022-08-19T09:06:51;18.70;;;8.70;;
3447;SDS011;1738;49.500;17.736;2022-08-19T09:09:17;17.60;;;10.40;;
3447;SDS011;1738;49.500;17.736;2022-08-19T09:14:21;12.73;;;9.90;;
3447;SDS011;1738;49.500;17.736;2022-08-19T09:16:41;13.73;;;10.13;;
3447;SDS011;1738;49.500;17.736;2022-08-19T09:19:08;11.73;;;10.20;;
3447;SDS011;1738;49.500;17.736;2022-08-19T09:21:33;17.17;;;10.10;;
3447;SDS011;1738;49.500;17.736;2022-08-19T09:23:59;16.53;;;9.83;;
3447;SDS011;1738;49.500;17.736;2022-08-19T09:26:25;18.27;;;10.00;;
3447;SDS011;1738;49.500;17.736;2022-08-19T09:28:51;19.70;;;11.03;;
3447;SDS011;1738;49.500;17.736;2022-08-19T09:31:18;14.60;;;9.83;;
3447;SDS011;1738;49.500;17.736;2022-08-19T09:33:42;13.33;;;9.83;;
3447;SDS011;1738;49.500;17.736;2022-08-19T09:36:10;15.00;;;9.60;;
3447;SDS011;1738;49.500;17.736;2022-08-19T09:38:35;20.43;;;10.67;;
3447;SDS011;1738;49.500;17.736;2022-08-19T09:41:03;16.13;;;10.20;;
3447;SDS011;1738;49.500;17.736;2022-08-19T09:43:27;13.67;;;9.97;;
3447;SDS011;1738;49.500;17.736;2022-08-19T09:45:53;17.13;;;9.90;;
3447;SDS011;1738;49.500;17.736;2022-08-19T09:48:19;13.00;;;10.30;;
3447;SDS011;1738;49.500;17.736;2022-08-19T09:50:45;12.20;;;9.90;;
3447;SDS011;1738;49.500;17.736;2022-08-19T09:53:11;13.97;;;8.90;;
3447;SDS011;1738;49.500;17.736;2022-08-19T09:55:41;18.07;;;9.70;;
3447;SDS011;1738;49.500;17.736;2022-08-19T09:58:03;14.87;;;10.27;;
3447;SDS011;1738;49.500;17.736;2022-08-19T10:00:28;10.67;;;9.47;;
3447;SDS011;1738;49.500;17.736;2022-08-19T10:02:54;16.07;;;9.10;;
3447;SDS011;1738;49.500;17.736;2022-08-19T10:05:20;13.50;;;8.57;;
3447;SDS011;1738;49.500;17.736;2022-08-19T10:07:52;15.47;;;7.60;;
3447;SDS011;1738;49.500;17.736;2022-08-19T10:10:18;14.33;;;10.23;;
3447;SDS011;1738;49.500;17.736;2022-08-19T10:12:43;16.00;;;9.70;;
3447;SDS011;1738;49.500;17.736;2022-08-19T10:15:09;11.83;;;8.67;;
3447;SDS011;1738;49.500;17.736;2022-08-19T10:17:35;13.23;;;8.40;;
3447;SDS011;1738;49.500;17.736;2022-08-19T10:20:01;11.23;;;8.90;;
3447;SDS011;1738;49.500;17.736;2022-08-19T10:22:27;11.53;;;9.40;;
3447;SDS011;1738;49.500;17.736;2022-08-19T10:24:53;11.00;;;8.07;;
3447;SDS011;1738;49.500;17.736;2022-08-19T10:27:19;19.47;;;9.20;;
3447;SDS011;1738;49.500;17.736;2022-08-19T10:29:45;18.87;;;8.43;;
3447;SDS011;1738;49.500;17.736;2022-08-19T10:32:10;14.47;;;8.70;;
3447;SDS011;1738;49.500;17.736;2022-08-19T10:34:37;14.23;;;8.70;;
3447;SDS011;1738;49.500;17.736;2022-08-19T10:37:03;11.87;;;10.10;;
3447;SDS011;1738;49.500;17.736;2022-08-19T10:39:29;15.87;;;8.40;;
3447;SDS011;1738;49.500;17.736;2022-08-19T10:41:54;15.50;;;9.23;;
3447;SDS011;1738;49.500;17.736;2022-08-19T10:44:20;12.57;;;8.93;;
3447;SDS011;1738;49.500;17.736;2022-08-19T10:46:46;9.53;;;8.20;;
3447;SDS011;1738;49.500;17.736;2022-08-19T10:49:13;10.67;;;8.57;;
3447;SDS011;1738;49.500;17.736;2022-08-19T10:51:39;10.80;;;8.50;;
3447;SDS011;1738;49.500;17.736;2022-08-19T10:54:10;17.90;;;8.60;;
3447;SDS011;1738;49.500;17.736;2022-08-19T10:56:36;9.50;;;8.50;;
3447;SDS011;1738;49.500;17.736;2022-08-19T10:59:08;10.70;;;8.00;;
3447;SDS011;1738;49.500;17.736;2022-08-19T11:01:33;14.33;;;8.93;;
3447;SDS011;1738;49.500;17.736;2022-08-19T11:04:01;12.73;;;8.13;;
3447;SDS011;1738;49.500;17.736;2022-08-19T11:06:26;14.67;;;8.33;;
3447;SDS011;1738;49.500;17.736;2022-08-19T11:08:53;12.80;;;8.10;;
3447;SDS011;1738;49.500;17.736;2022-08-19T11:11:18;16.07;;;8.60;;
3447;SDS011;1738;49.500;17.736;2022-08-19T11:13:43;10.63;;;8.30;;
3447;SDS011;1738;49.500;17.736;2022-08-19T11:16:10;14.37;;;8.60;;
3447;SDS011;1738;49.500;17.736;2022-08-19T11:18:36;9.90;;;7.73;;
3447;SDS011;1738;49.500;17.736;2022-08-19T11:21:05;11.23;;;8.20;;
3447;SDS011;1738;49.500;17.736;2022-08-19T11:23:30;10.90;;;8.10;;
3447;SDS011;1738;49.500;17.736;2022-08-19T11:25:56;9.57;;;8.60;;
3447;SDS011;1738;49.500;17.736;2022-08-19T11:28:22;12.50;;;8.97;;
3447;SDS011;1738;49.500;17.736;2022-08-19T11:30:47;12.63;;;7.67;;
3447;SDS011;1738;49.500;17.736;2022-08-19T11:33:13;13.37;;;9.07;;
3447;SDS011;1738;49.500;17.736;2022-08-19T11:35:39;9.67;;;7.77;;
3447;SDS011;1738;49.500;17.736;2022-08-19T11:38:05;13.43;;;8.30;;
3447;SDS011;1738;49.500;17.736;2022-08-19T11:40:31;8.77;;;7.70;;
3447;SDS011;1738;49.500;17.736;2022-08-19T11:42:57;10.70;;;8.00;;
3447;SDS011;1738;49.500;17.736;2022-08-19T11:45:24;12.13;;;8.30;;
3447;SDS011;1738;49.500;17.736;2022-08-19T11:47:48;11.00;;;8.90;;
3447;SDS011;1738;49.500;17.736;2022-08-19T11:50:15;9.30;;;7.87;;
3447;SDS011;1738;49.500;17.736;2022-08-19T11:52:40;11.03;;;9.00;;
3447;SDS011;1738;49.500;17.736;2022-08-19T11:55:06;11.60;;;8.50;;
3447;SDS011;1738;49.500;17.736;2022-08-19T11:57:32;14.40;;;8.70;;
3447;SDS011;1738;49.500;17.736;2022-08-19T11:59:58;11.50;;;7.60;;
3447;SDS011;1738;49.500;17.736;2022-08-19T12:02:24;10.97;;;8.17;;
3447;SDS011;1738;49.500;17.736;2022-08-19T12:04:50;10.87;;;7.50;;
3447;SDS011;1738;49.500;17.736;2022-08-19T12:07:16;15.30;;;8.13;;
3447;SDS011;1738;49.500;17.736;2022-08-19T12:09:41;14.03;;;8.70;;
3447;SDS011;1738;49.500;17.736;2022-08-19T12:12:07;13.27;;;8.30;;
3447;SDS011;1738;49.500;17.736;2022-08-19T12:14:33;14.30;;;9.17;;
3447;SDS011;1738;49.500;17.736;2022-08-19T12:16:59;9.40;;;8.13;;
3447;SDS011;1738;49.500;17.736;2022-08-19T12:19:25;14.37;;;8.90;;
3447;SDS011;1738;49.500;17.736;2022-08-19T12:21:51;13.60;;;8.13;;
3447;SDS011;1738;49.500;17.736;2022-08-19T12:24:17;11.90;;;8.50;;
3447;SDS011;1738;49.500;17.736;2022-08-19T12:26:43;9.00;;;7.50;;
3447;SDS011;1738;49.500;17.736;2022-08-19T12:29:08;10.87;;;8.97;;
3447;SDS011;1738;49.500;17.736;2022-08-19T12:31:34;9.00;;;6.97;;
3447;SDS011;1738;49.500;17.736;2022-08-19T12:34:00;10.70;;;7.93;;
3447;SDS011;1738;49.500;17.736;2022-08-19T12:36:26;16.40;;;8.23;;
3447;SDS011;1738;49.500;17.736;2022-08-19T12:38:52;12.70;;;7.73;;
3447;SDS011;1738;49.500;17.736;2022-08-19T12:41:18;12.20;;;8.07;;
3447;SDS011;1738;49.500;17.736;2022-08-19T12:43:44;11.83;;;7.97;;
3447;SDS011;1738;49.500;17.736;2022-08-19T12:46:09;15.30;;;8.23;;
3447;SDS011;1738;49.500;17.736;2022-08-19T12:48:35;13.37;;;10.87;;
3447;SDS011;1738;49.500;17.736;2022-08-19T12:51:06;11.70;;;7.73;;
3447;SDS011;1738;49.500;17.736;2022-08-19T12:53:31;15.57;;;7.40;;
3447;SDS011;1738;49.500;17.736;2022-08-19T12:55:58;8.70;;;7.70;;
3447;SDS011;1738;49.500;17.736;2022-08-19T12:58:23;9.73;;;7.63;;
3447;SDS011;1738;49.500;17.736;2022-08-19T13:00:49;12.80;;;8.03;;
3447;SDS011;1738;49.500;17.736;2022-08-19T13:03:15;14.80;;;8.33;;
3447;SDS011;1738;49.500;17.736;2022-08-19T13:05:41;8.97;;;7.00;;
3447;SDS011;1738;49.500;17.736;2022-08-19T13:08:07;10.30;;;7.70;;
3447;SDS011;1738;49.500;17.736;2022-08-19T13:10:33;16.43;;;7.27;;
3447;SDS011;1738;49.500;17.736;2022-08-19T13:12:59;12.90;;;7.10;;
3447;SDS011;1738;49.500;17.736;2022-08-19T13:15:25;10.70;;;6.70;;
3447;SDS011;1738;49.500;17.736;2022-08-19T13:17:51;11.20;;;7.20;;
3447;SDS011;1738;49.500;17.736;2022-08-19T13:20:17;17.03;;;7.33;;
3447;SDS011;1738;49.500;17.736;2022-08-19T13:22:43;12.10;;;7.00;;
3447;SDS011;1738;49.500;17.736;2022-08-19T13:25:08;10.43;;;6.67;;
3447;SDS011;1738;49.500;17.736;2022-08-19T13:27:35;8.73;;;6.70;;
3447;SDS011;1738;49.500;17.736;2022-08-19T13:30:00;12.67;;;6.40;;
3447;SDS011;1738;49.500;17.736;2022-08-19T13:32:32;12.30;;;6.60;;
3447;SDS011;1738;49.500;17.736;2022-08-19T13:35:03;11.13;;;5.97;;
3447;SDS011;1738;49.500;17.736;2022-08-19T13:37:29;15.07;;;6.73;;
3447;SDS011;1738;49.500;17.736;2022-08-19T13:40:01;11.13;;;6.23;;
3447;SDS011;1738;49.500;17.736;2022-08-19T13:42:27;23.67;;;6.60;;
3447;SDS011;1738;49.500;17.736;2022-08-19T13:44:53;18.00;;;6.87;;
3447;SDS011;1738;49.500;17.736;2022-08-19T13:47:18;12.03;;;6.67;;
3447;SDS011;1738;49.500;17.736;2022-08-19T13:49:44;13.03;;;5.67;;
3447;SDS011;1738;49.500;17.736;2022-08-19T13:52:10;11.20;;;6.20;;
3447;SDS011;1738;49.500;17.736;2022-08-19T13:54:36;16.80;;;6.53;;
3447;SDS011;1738;49.500;17.736;2022-08-19T13:57:02;14.20;;;6.90;;
3447;SDS011;1738;49.500;17.736;2022-08-19T13:59:28;17.23;;;6.93;;
3447;SDS011;1738;49.500;17.736;2022-08-19T14:01:57;14.40;;;6.73;;
3447;SDS011;1738;49.500;17.736;2022-08-19T14:04:19;11.07;;;6.10;;
3447;SDS011;1738;49.500;17.736;2022-08-19T14:06:45;14.20;;;6.90;;
3447;SDS011;1738;49.500;17.736;2022-08-19T14:09:11;14.67;;;6.47;;
3447;SDS011;1738;49.500;17.736;2022-08-19T14:11:37;14.20;;;7.13;;
3447;SDS011;1738;49.500;17.736;2022-08-19T14:14:03;12.63;;;6.80;;
3447;SDS011;1738;49.500;17.736;2022-08-19T14:16:29;14.20;;;6.70;;
3447;SDS011;1738;49.500;17.736;2022-08-19T14:18:54;14.10;;;6.73;;
3447;SDS011;1738;49.500;17.736;2022-08-19T14:21:21;9.03;;;5.50;;
3447;SDS011;1738;49.500;17.736;2022-08-19T14:23:46;10.63;;;6.10;;
3447;SDS011;1738;49.500;17.736;2022-08-19T14:26:14;10.07;;;6.30;;
3447;SDS011;1738;49.500;17.736;2022-08-19T14:28:38;8.93;;;6.43;;
3447;SDS011;1738;49.500;17.736;2022-08-19T14:31:04;12.53;;;7.20;;
3447;SDS011;1738;49.500;17.736;2022-08-19T14:33:30;15.30;;;7.13;;
3447;SDS011;1738;49.500;17.736;2022-08-19T14:35:55;10.83;;;6.17;;
3447;SDS011;1738;49.500;17.736;2022-08-19T14:38:21;13.83;;;6.40;;